»·PEaware :: XB-AVE KBFL-KMHV

XB-AVE :: KBFL-KMHV

FLIGHT INFORMATION

Flight Status: Arrived
Operator: Privately registered:
Mexico
More flights under this callsign
Pilot: José E. (16166)
Aircraft: CESSNA 172 SKYHAWK
(C172)
More flights by this aircraft type
Origin: KBFL Meadows
United States
Destination: KMHV Mojave
United States
More flights between these airports :: More routes between these airports
Route: +
File this flight plan on PilotEdge
Remarks:
Altitude:
(Current/Filed)
7,500ft
Speed:
(Current/Filed)
0kts
Departed: 26-Sep-17 01:25 PM
Arrived: 26-Sep-17 02:12 PM
Distance/Time
Traveled:
49nm/0:47
Distance/Time
To Go:
Arrived

Flight Plot

Page will automatically refresh every two minutes.


Map Options




Map Legend


Flown Route
Filed Route
Departure Airport
Arrival Airport
Navaid (VOR, NDB)
Fix

Horizontal Profiles

Position Reports

Time Latitude Longitude Heading Altitude Ground
Speed
26-Sep-17 13:20 35.435704 -119.052053 180 503ft 0kts
26-Sep-17 13:21 35.435704 -119.052053 180 503ft 0kts
26-Sep-17 13:22 35.435680 -119.052116 227 502ft 3kts
26-Sep-17 13:23 35.434860 -119.054157 231 496ft 9kts
26-Sep-17 13:24 35.432513 -119.052356 137 492ft 12kts
26-Sep-17 13:25 35.430192 -119.049520 137 490ft 13kts
26-Sep-17 13:26 35.427650 -119.046481 135 486ft 15kts
26-Sep-17 13:27 35.425743 -119.044710 225 479ft 0kts
26-Sep-17 13:28 35.425484 -119.045290 266 477ft 5kts
26-Sep-17 13:29 35.429841 -119.051409 318 585ft 75kts
26-Sep-17 13:30 35.447392 -119.066444 350 1583ft 81kts
26-Sep-17 13:31 35.462871 -119.048620 88 2545ft 91kts
26-Sep-17 13:32 35.451909 -119.020108 118 3483ft 90kts
26-Sep-17 13:33 35.440623 -118.991869 112 4335ft 94kts
26-Sep-17 13:34 35.429836 -118.962196 108 5177ft 95kts
26-Sep-17 13:35 35.419019 -118.931796 119 5963ft 98kts
26-Sep-17 13:36 35.403374 -118.903627 122 6687ft 102kts
26-Sep-17 13:37 35.386454 -118.875894 140 7369ft 106kts
26-Sep-17 13:38 35.368597 -118.848314 120 7618ft 106kts
26-Sep-17 13:39 35.353249 -118.817254 117 7521ft 106kts
26-Sep-17 13:40 35.338296 -118.786499 115 7552ft 103kts
26-Sep-17 13:41 35.324560 -118.755681 115 7560ft 104kts
26-Sep-17 13:42 35.308629 -118.726091 116 7584ft 103kts
26-Sep-17 13:43 35.292161 -118.697686 120 7628ft 102kts
26-Sep-17 13:44 35.274905 -118.670314 118 7587ft 101kts
26-Sep-17 13:45 35.257961 -118.643027 121 7541ft 100kts
26-Sep-17 13:46 35.240421 -118.617345 123 7576ft 99kts
26-Sep-17 13:47 35.222215 -118.592402 122 7621ft 97kts
26-Sep-17 13:48 35.205644 -118.567182 121 7668ft 95kts
26-Sep-17 13:49 35.188196 -118.542994 122 7709ft 94kts
26-Sep-17 13:50 35.175518 -118.523221 118 7704ft 96kts
26-Sep-17 13:51 35.158823 -118.497644 119 7681ft 96kts
26-Sep-17 13:52 35.142513 -118.472333 115 7700ft 90kts
26-Sep-17 13:53 35.131498 -118.444593 106 7669ft 90kts
26-Sep-17 13:54 35.120863 -118.417872 108 7421ft 86kts
26-Sep-17 13:55 35.109200 -118.392042 111 7060ft 86kts
26-Sep-17 13:56 35.098768 -118.366738 105 6756ft 79kts
26-Sep-17 13:57 35.090228 -118.341450 108 6435ft 81kts
26-Sep-17 13:58 35.079943 -118.316764 114 6106ft 82kts
26-Sep-17 13:59 35.067821 -118.293720 114 5818ft 77kts
26-Sep-17 14:00 35.052885 -118.275608 125 5601ft 74kts
26-Sep-17 14:01 35.040004 -118.259303 123 5439ft 73kts
26-Sep-17 14:02 35.034882 -118.236916 92 5337ft 73kts
26-Sep-17 14:03 35.032252 -118.211611 94 4991ft 79kts
26-Sep-17 14:04 35.029658 -118.185250 90 4774ft 77kts
26-Sep-17 14:05 35.030831 -118.158765 92 4583ft 80kts
26-Sep-17 14:06 35.029244 -118.132846 91 4375ft 79kts
26-Sep-17 14:07 35.030556 -118.105260 78 4192ft 78kts
26-Sep-17 14:08 35.045836 -118.096842 333 3950ft 71kts
26-Sep-17 14:09 35.057933 -118.116777 277 3490ft 85kts
26-Sep-17 14:10 35.058573 -118.145763 270 3111ft 85kts
26-Sep-17 14:11 35.063614 -118.170922 337 3739ft 75kts
26-Sep-17 14:12 35.078628 -118.162915 83 4059ft 78kts
26-Sep-17 14:13 35.077953 -118.136651 84 4010ft 79kts
26-Sep-17 14:14 35.062134 -118.123011 177 3623ft 89kts
26-Sep-17 14:15 35.059114 -118.146185 275 2756ft 59kts
26-Sep-17 14:16 35.059184 -118.156880 264 2764ft 15kts
26-Sep-17 14:17 35.057631 -118.159752 266 2767ft 8kts
26-Sep-17 14:18 35.057627 -118.162359 270 2770ft 8kts
26-Sep-17 14:19 35.057304 -118.163912 172 2773ft 0kts
26-Sep-17 14:20 35.057304 -118.163912 172 2773ft 0kts
26-Sep-17 14:21 35.057304 -118.163912 172 2773ft 0kts
26-Sep-17 14:22 35.057304 -118.163912 172 2773ft 0kts
26-Sep-17 14:23 35.057304 -118.163912 172 2773ft 0kts

Navigation Log

Ident Type
1. KBFL Airport
2. KMHV Airport